sensor_id;sensor_type;location;lat;lon;timestamp;pressure;altitude;pressure_sealevel;temperature;humidity
66762;BME280;53672;48.176;16.338;2023-07-29T00:04:51;98808.53;;;21.84;54.16
66762;BME280;53672;48.176;16.338;2023-07-29T00:09:51;98814.03;;;21.69;54.83
66762;BME280;53672;48.176;16.338;2023-07-29T00:14:51;98815.44;;;21.62;54.92
66762;BME280;53672;48.176;16.338;2023-07-29T00:19:54;98806.69;;;21.53;55.10
66762;BME280;53672;48.176;16.338;2023-07-29T00:24:54;98798.91;;;21.55;55.80
66762;BME280;53672;48.176;16.338;2023-07-29T00:29:55;98803.91;;;21.53;55.45
66762;BME280;53672;48.176;16.338;2023-07-29T00:34:57;98801.13;;;21.48;55.91
66762;BME280;53672;48.176;16.338;2023-07-29T00:39:57;98799.16;;;21.54;55.72
66762;BME280;53672;48.176;16.338;2023-07-29T00:44:58;98786.84;;;21.44;56.14
66762;BME280;53672;48.176;16.338;2023-07-29T00:50:00;98795.22;;;21.44;56.04
66762;BME280;53672;48.176;16.338;2023-07-29T00:55:00;98789.06;;;21.37;56.12
66762;BME280;53672;48.176;16.338;2023-07-29T01:00:02;98786.00;;;21.44;56.01
66762;BME280;53672;48.176;16.338;2023-07-29T01:05:05;98780.97;;;21.36;56.35
66762;BME280;53672;48.176;16.338;2023-07-29T01:10:12;98790.44;;;21.30;56.51
66762;BME280;53672;48.176;16.338;2023-07-29T01:15:20;98784.81;;;21.20;56.71
66762;BME280;53672;48.176;16.338;2023-07-29T01:20:25;98783.09;;;21.09;57.26
66762;BME280;53672;48.176;16.338;2023-07-29T01:25:27;98790.81;;;20.97;57.57
66762;BME280;53672;48.176;16.338;2023-07-29T01:30:31;98798.03;;;20.88;57.88
66762;BME280;53672;48.176;16.338;2023-07-29T01:35:36;98805.28;;;20.84;58.10
66762;BME280;53672;48.176;16.338;2023-07-29T01:40:42;98804.66;;;20.82;58.32
66762;BME280;53672;48.176;16.338;2023-07-29T01:45:44;98793.50;;;20.82;58.43
66762;BME280;53672;48.176;16.338;2023-07-29T01:50:44;98789.13;;;20.96;57.88
66762;BME280;53672;48.176;16.338;2023-07-29T01:55:46;98780.81;;;21.06;57.59
66762;BME280;53672;48.176;16.338;2023-07-29T02:00:46;98786.41;;;21.06;58.11
66762;BME280;53672;48.176;16.338;2023-07-29T02:05:47;98785.91;;;21.14;57.56
66762;BME280;53672;48.176;16.338;2023-07-29T02:10:49;98776.72;;;21.18;57.69
66762;BME280;53672;48.176;16.338;2023-07-29T02:15:49;98771.66;;;21.15;57.54
66762;BME280;53672;48.176;16.338;2023-07-29T02:20:50;98778.34;;;21.14;57.36
66762;BME280;53672;48.176;16.338;2023-07-29T02:25:52;98781.34;;;21.03;57.68
66762;BME280;53672;48.176;16.338;2023-07-29T02:31:14;98784.72;;;21.00;57.48
66762;BME280;53672;48.176;16.338;2023-07-29T02:36:15;98787.16;;;20.91;57.30
66762;BME280;53672;48.176;16.338;2023-07-29T02:41:17;98797.34;;;20.75;56.37
66762;BME280;53672;48.176;16.338;2023-07-29T02:46:18;98803.91;;;20.86;56.68
66762;BME280;53672;48.176;16.338;2023-07-29T02:51:18;98790.28;;;21.00;55.55
66762;BME280;53672;48.176;16.338;2023-07-29T02:56:20;98779.75;;;21.17;54.35
66762;BME280;53672;48.176;16.338;2023-07-29T03:01:21;98795.44;;;21.23;53.47
66762;BME280;53672;48.176;16.338;2023-07-29T03:06:21;98800.47;;;21.21;53.37
66762;BME280;53672;48.176;16.338;2023-07-29T03:11:23;98798.44;;;21.11;53.62
66762;BME280;53672;48.176;16.338;2023-07-29T03:16:23;98795.88;;;21.00;53.70
66762;BME280;53672;48.176;16.338;2023-07-29T03:21:24;98786.34;;;20.91;53.81
66762;BME280;53672;48.176;16.338;2023-07-29T03:26:26;98793.81;;;20.85;54.04
66762;BME280;53672;48.176;16.338;2023-07-29T03:31:26;98797.94;;;20.77;54.03
66762;BME280;53672;48.176;16.338;2023-07-29T03:36:27;98812.41;;;20.69;54.15
66762;BME280;53672;48.176;16.338;2023-07-29T03:41:29;98811.25;;;20.65;54.78
66762;BME280;53672;48.176;16.338;2023-07-29T03:46:29;98817.97;;;20.69;54.63
66762;BME280;53672;48.176;16.338;2023-07-29T03:51:30;98826.00;;;20.61;55.19
66762;BME280;53672;48.176;16.338;2023-07-29T03:56:32;98820.44;;;20.61;55.43
66762;BME280;53672;48.176;16.338;2023-07-29T04:01:32;98821.53;;;20.60;55.26
66762;BME280;53672;48.176;16.338;2023-07-29T04:06:32;98828.44;;;20.52;54.99
66762;BME280;53672;48.176;16.338;2023-07-29T04:11:34;98823.13;;;20.51;54.71
66762;BME280;53672;48.176;16.338;2023-07-29T04:16:35;98834.56;;;20.49;54.52
66762;BME280;53672;48.176;16.338;2023-07-29T04:21:35;98847.16;;;20.57;54.40
66762;BME280;53672;48.176;16.338;2023-07-29T04:26:37;98847.53;;;20.70;53.96
66762;BME280;53672;48.176;16.338;2023-07-29T04:31:38;98859.00;;;20.74;54.03
66762;BME280;53672;48.176;16.338;2023-07-29T04:36:38;98873.81;;;20.74;53.94
66762;BME280;53672;48.176;16.338;2023-07-29T04:41:40;98861.00;;;20.78;53.85
66762;BME280;53672;48.176;16.338;2023-07-29T04:46:41;98864.44;;;20.86;53.45
66762;BME280;53672;48.176;16.338;2023-07-29T04:51:41;98867.44;;;20.79;53.52
66762;BME280;53672;48.176;16.338;2023-07-29T04:56:43;98868.88;;;20.87;53.27
66762;BME280;53672;48.176;16.338;2023-07-29T05:01:43;98869.53;;;20.99;52.82
66762;BME280;53672;48.176;16.338;2023-07-29T05:06:44;98875.41;;;20.97;52.93
66762;BME280;53672;48.176;16.338;2023-07-29T05:11:46;98874.03;;;21.00;53.05
66762;BME280;53672;48.176;16.338;2023-07-29T05:16:46;98872.94;;;21.06;52.94
66762;BME280;53672;48.176;16.338;2023-07-29T05:21:46;98861.06;;;21.25;52.12
66762;BME280;53672;48.176;16.338;2023-07-29T05:26:48;98866.19;;;21.43;52.23
66762;BME280;53672;48.176;16.338;2023-07-29T05:31:49;98870.09;;;21.47;52.18
66762;BME280;53672;48.176;16.338;2023-07-29T05:36:49;98877.78;;;21.72;51.57
66762;BME280;53672;48.176;16.338;2023-07-29T05:41:51;98874.22;;;21.92;51.47
66762;BME280;53672;48.176;16.338;2023-07-29T05:46:52;98874.53;;;22.00;51.90
66762;BME280;53672;48.176;16.338;2023-07-29T05:51:52;98882.94;;;22.21;50.56
66762;BME280;53672;48.176;16.338;2023-07-29T05:56:54;98879.59;;;22.34;50.25
66762;BME280;53672;48.176;16.338;2023-07-29T06:01:54;98885.53;;;22.47;50.26
66762;BME280;53672;48.176;16.338;2023-07-29T06:06:55;98884.13;;;22.70;49.80
66762;BME280;53672;48.176;16.338;2023-07-29T06:11:57;98884.44;;;22.83;49.26
66762;BME280;53672;48.176;16.338;2023-07-29T06:16:57;98881.34;;;22.60;49.39
66762;BME280;53672;48.176;16.338;2023-07-29T06:21:58;98890.00;;;22.63;50.00
66762;BME280;53672;48.176;16.338;2023-07-29T06:27:00;98884.97;;;22.70;49.63
66762;BME280;53672;48.176;16.338;2023-07-29T06:32:00;98888.06;;;22.79;49.44
66762;BME280;53672;48.176;16.338;2023-07-29T06:37:01;98889.72;;;23.00;49.27
66762;BME280;53672;48.176;16.338;2023-07-29T06:42:03;98888.06;;;23.09;48.67
66762;BME280;53672;48.176;16.338;2023-07-29T06:47:04;98892.25;;;23.12;48.65
66762;BME280;53672;48.176;16.338;2023-07-29T06:52:05;98881.28;;;23.35;48.44
66762;BME280;53672;48.176;16.338;2023-07-29T06:57:07;98869.38;;;23.69;47.25
66762;BME280;53672;48.176;16.338;2023-07-29T07:02:07;98863.75;;;23.89;46.49
66762;BME280;53672;48.176;16.338;2023-07-29T07:07:08;98877.22;;;24.31;45.75
66762;BME280;53672;48.176;16.338;2023-07-29T07:12:10;98867.66;;;24.75;44.80
66762;BME280;53672;48.176;16.338;2023-07-29T07:17:10;98872.53;;;24.93;43.96
66762;BME280;53672;48.176;16.338;2023-07-29T07:22:11;98868.97;;;25.17;43.21
66762;BME280;53672;48.176;16.338;2023-07-29T07:27:12;98866.03;;;25.27;43.46
66762;BME280;53672;48.176;16.338;2023-07-29T07:32:13;98851.81;;;25.66;43.30
66762;BME280;53672;48.176;16.338;2023-07-29T07:37:13;98857.53;;;26.03;42.31
66762;BME280;53672;48.176;16.338;2023-07-29T07:42:15;98860.88;;;26.23;42.12
66762;BME280;53672;48.176;16.338;2023-07-29T07:47:16;98859.56;;;26.40;40.80
66762;BME280;53672;48.176;16.338;2023-07-29T07:52:16;98863.41;;;26.44;41.36
66762;BME280;53672;48.176;16.338;2023-07-29T07:57:18;98859.34;;;27.19;40.44
66762;BME280;53672;48.176;16.338;2023-07-29T08:02:18;98859.97;;;26.84;39.50
66762;BME280;53672;48.176;16.338;2023-07-29T08:07:19;98866.31;;;27.08;38.65
66762;BME280;53672;48.176;16.338;2023-07-29T08:12:21;98853.88;;;26.77;38.47
66762;BME280;53672;48.176;16.338;2023-07-29T08:17:21;98862.44;;;26.53;39.52
66762;BME280;53672;48.176;16.338;2023-07-29T08:22:22;98855.25;;;27.12;38.86
66762;BME280;53672;48.176;16.338;2023-07-29T08:27:24;98848.91;;;27.33;38.01
66762;BME280;53672;48.176;16.338;2023-07-29T08:32:24;98834.97;;;27.69;35.46
66762;BME280;53672;48.176;16.338;2023-07-29T08:37:25;98840.06;;;27.53;35.94
66762;BME280;53672;48.176;16.338;2023-07-29T08:42:29;98834.41;;;28.21;35.11
66762;BME280;53672;48.176;16.338;2023-07-29T08:47:31;98826.50;;;28.68;34.72
66762;BME280;53672;48.176;16.338;2023-07-29T08:52:32;98827.72;;;28.97;34.54
66762;BME280;53672;48.176;16.338;2023-07-29T08:57:35;98812.94;;;29.70;34.18
66762;BME280;53672;48.176;16.338;2023-07-29T09:02:36;98811.22;;;30.00;32.07
66762;BME280;53672;48.176;16.338;2023-07-29T09:07:36;98816.41;;;30.84;31.20
66762;BME280;53672;48.176;16.338;2023-07-29T09:12:39;98804.63;;;32.54;28.62
66762;BME280;53672;48.176;16.338;2023-07-29T09:17:40;98793.41;;;34.56;24.86
66762;BME280;53672;48.176;16.338;2023-07-29T09:22:43;98794.06;;;35.63;23.40
66762;BME280;53672;48.176;16.338;2023-07-29T09:27:45;98783.41;;;37.64;21.17
66762;BME280;53672;48.176;16.338;2023-07-29T09:32:46;98786.97;;;39.18;18.91
66762;BME280;53672;48.176;16.338;2023-07-29T09:37:46;98769.28;;;40.65;17.90
66762;BME280;53672;48.176;16.338;2023-07-29T09:42:52;98766.25;;;42.75;15.56
66762;BME280;53672;48.176;16.338;2023-07-29T09:47:54;98750.75;;;43.20;15.06
66762;BME280;53672;48.176;16.338;2023-07-29T09:52:55;98751.03;;;45.10;12.79
66762;BME280;53672;48.176;16.338;2023-07-29T09:57:58;98750.88;;;46.24;11.73
66762;BME280;53672;48.176;16.338;2023-07-29T10:02:59;98729.56;;;46.54;11.60
66762;BME280;53672;48.176;16.338;2023-07-29T10:08:00;98733.81;;;48.57;9.54
66762;BME280;53672;48.176;16.338;2023-07-29T10:13:02;98723.66;;;45.91;11.69
66762;BME280;53672;48.176;16.338;2023-07-29T10:18:04;98719.09;;;45.13;11.93
66762;BME280;53672;48.176;16.338;2023-07-29T10:23:07;98714.91;;;46.80;10.80
66762;BME280;53672;48.176;16.338;2023-07-29T10:28:12;98714.78;;;48.52;9.76
66762;BME280;53672;48.176;16.338;2023-07-29T10:33:12;98715.84;;;49.28;8.88
66762;BME280;53672;48.176;16.338;2023-07-29T10:38:14;98725.94;;;48.98;8.61
66762;BME280;53672;48.176;16.338;2023-07-29T10:43:25;98723.25;;;48.18;9.45
66762;BME280;53672;48.176;16.338;2023-07-29T10:48:41;98707.97;;;48.42;8.51
66762;BME280;53672;48.176;16.338;2023-07-29T10:53:42;98696.66;;;44.87;11.34
66762;BME280;53672;48.176;16.338;2023-07-29T10:58:44;98682.91;;;42.66;13.77
66762;BME280;53672;48.176;16.338;2023-07-29T11:04:01;98672.88;;;42.92;12.99
66762;BME280;53672;48.176;16.338;2023-07-29T11:09:39;98657.88;;;46.67;10.36
66762;BME280;53672;48.176;16.338;2023-07-29T11:14:41;98644.44;;;45.71;10.54
66762;BME280;53672;48.176;16.338;2023-07-29T11:19:41;98638.63;;;46.73;10.93
66762;BME280;53672;48.176;16.338;2023-07-29T11:24:42;98652.53;;;46.45;9.92
66762;BME280;53672;48.176;16.338;2023-07-29T11:29:44;98650.44;;;40.65;15.28
66762;BME280;53672;48.176;16.338;2023-07-29T11:34:45;98652.66;;;41.70;14.54
66762;BME280;53672;48.176;16.338;2023-07-29T11:39:45;98641.88;;;38.98;17.17
66762;BME280;53672;48.176;16.338;2023-07-29T11:44:47;98648.22;;;36.68;20.17
66762;BME280;53672;48.176;16.338;2023-07-29T11:49:47;98641.50;;;35.18;22.03
66762;BME280;53672;48.176;16.338;2023-07-29T11:54:48;98640.47;;;34.63;22.68
66762;BME280;53672;48.176;16.338;2023-07-29T11:59:50;98636.81;;;33.31;23.13
66762;BME280;53672;48.176;16.338;2023-07-29T12:04:52;98631.88;;;32.71;24.59
66762;BME280;53672;48.176;16.338;2023-07-29T12:09:52;98633.63;;;34.24;22.87
66762;BME280;53672;48.176;16.338;2023-07-29T12:14:55;98631.03;;;35.06;21.04
66762;BME280;53672;48.176;16.338;2023-07-29T12:19:56;98626.63;;;33.82;22.70
66762;BME280;53672;48.176;16.338;2023-07-29T12:24:56;98632.47;;;38.61;17.28
66762;BME280;53672;48.176;16.338;2023-07-29T12:30:01;98627.34;;;40.47;15.87
66762;BME280;53672;48.176;16.338;2023-07-29T12:35:01;98623.91;;;39.04;17.26
66762;BME280;53672;48.176;16.338;2023-07-29T12:40:02;98628.53;;;39.16;17.67
66762;BME280;53672;48.176;16.338;2023-07-29T12:45:05;98631.56;;;39.85;16.92
66762;BME280;53672;48.176;16.338;2023-07-29T12:50:06;98623.34;;;37.92;20.00
66762;BME280;53672;48.176;16.338;2023-07-29T12:55:07;98613.59;;;35.27;21.11
66762;BME280;53672;48.176;16.338;2023-07-29T13:00:10;98624.72;;;34.85;21.17
66762;BME280;53672;48.176;16.338;2023-07-29T13:05:12;98620.56;;;35.10;21.61
66762;BME280;53672;48.176;16.338;2023-07-29T13:10:13;98630.63;;;33.93;19.73
66762;BME280;53672;48.176;16.338;2023-07-29T13:15:15;98641.75;;;34.66;19.91
66762;BME280;53672;48.176;16.338;2023-07-29T13:20:16;98634.00;;;34.51;20.96
66762;BME280;53672;48.176;16.338;2023-07-29T13:25:16;98637.50;;;33.16;22.24
66762;BME280;53672;48.176;16.338;2023-07-29T13:30:18;98638.38;;;32.72;23.06
66762;BME280;53672;48.176;16.338;2023-07-29T13:35:19;98647.97;;;32.55;25.19
66762;BME280;53672;48.176;16.338;2023-07-29T13:40:19;98643.09;;;32.23;24.85
66762;BME280;53672;48.176;16.338;2023-07-29T13:45:21;98643.47;;;32.66;24.83
66762;BME280;53672;48.176;16.338;2023-07-29T13:50:22;98630.94;;;32.47;25.22
66762;BME280;53672;48.176;16.338;2023-07-29T13:55:23;98631.53;;;32.40;26.05
66762;BME280;53672;48.176;16.338;2023-07-29T14:00:25;98632.72;;;32.39;26.56
66762;BME280;53672;48.176;16.338;2023-07-29T14:05:25;98630.63;;;31.95;26.22
66762;BME280;53672;48.176;16.338;2023-07-29T14:10:26;98626.47;;;31.71;27.68
66762;BME280;53672;48.176;16.338;2023-07-29T14:15:28;98619.56;;;31.60;27.88
66762;BME280;53672;48.176;16.338;2023-07-29T14:20:28;98621.00;;;32.08;28.37
66762;BME280;53672;48.176;16.338;2023-07-29T14:25:29;98628.34;;;32.09;26.10
66762;BME280;53672;48.176;16.338;2023-07-29T14:30:30;98629.78;;;31.73;25.81
66762;BME280;53672;48.176;16.338;2023-07-29T14:35:31;98624.56;;;31.05;27.63
66762;BME280;53672;48.176;16.338;2023-07-29T14:40:32;98620.56;;;31.06;27.73
66762;BME280;53672;48.176;16.338;2023-07-29T14:45:33;98625.25;;;31.02;27.29
66762;BME280;53672;48.176;16.338;2023-07-29T14:50:34;98628.16;;;30.85;27.62
66762;BME280;53672;48.176;16.338;2023-07-29T14:55:34;98610.09;;;30.98;27.01
66762;BME280;53672;48.176;16.338;2023-07-29T15:00:36;98608.13;;;30.81;28.41
66762;BME280;53672;48.176;16.338;2023-07-29T15:05:37;98619.81;;;30.80;28.18
66762;BME280;53672;48.176;16.338;2023-07-29T15:10:37;98633.91;;;30.59;27.77
66762;BME280;53672;48.176;16.338;2023-07-29T15:15:41;98640.50;;;30.17;29.16
66762;BME280;53672;48.176;16.338;2023-07-29T15:20:43;98638.66;;;30.04;29.38
66762;BME280;53672;48.176;16.338;2023-07-29T15:25:44;98633.00;;;29.78;30.56
66762;BME280;53672;48.176;16.338;2023-07-29T15:30:46;98635.47;;;29.54;31.02
66762;BME280;53672;48.176;16.338;2023-07-29T15:35:46;98626.00;;;29.50;31.79
66762;BME280;53672;48.176;16.338;2023-07-29T15:40:46;98606.91;;;29.08;32.80
66762;BME280;53672;48.176;16.338;2023-07-29T15:45:48;98604.41;;;28.97;33.16
66762;BME280;53672;48.176;16.338;2023-07-29T15:50:49;98612.66;;;29.33;32.82
66762;BME280;53672;48.176;16.338;2023-07-29T15:55:50;98610.09;;;29.23;32.81
66762;BME280;53672;48.176;16.338;2023-07-29T16:00:51;98583.31;;;29.03;32.79
66762;BME280;53672;48.176;16.338;2023-07-29T16:05:52;98583.22;;;28.78;33.41
66762;BME280;53672;48.176;16.338;2023-07-29T16:10:52;98582.69;;;28.67;33.85
66762;BME280;53672;48.176;16.338;2023-07-29T16:15:54;98576.22;;;28.36;34.53
66762;BME280;53672;48.176;16.338;2023-07-29T16:20:55;98586.22;;;28.42;34.27
66762;BME280;53672;48.176;16.338;2023-07-29T16:25:55;98587.50;;;28.05;35.40
66762;BME280;53672;48.176;16.338;2023-07-29T16:30:57;98590.13;;;27.80;35.93
66762;BME280;53672;48.176;16.338;2023-07-29T16:35:58;98596.16;;;27.64;36.43
66762;BME280;53672;48.176;16.338;2023-07-29T16:40:58;98608.41;;;27.60;36.32
66762;BME280;53672;48.176;16.338;2023-07-29T16:46:00;98610.19;;;27.42;36.90
66762;BME280;53672;48.176;16.338;2023-07-29T16:51:01;98607.34;;;27.20;36.73
66762;BME280;53672;48.176;16.338;2023-07-29T16:56:01;98618.31;;;27.08;36.48
66762;BME280;53672;48.176;16.338;2023-07-29T17:01:03;98618.97;;;27.05;36.21
66762;BME280;53672;48.176;16.338;2023-07-29T17:06:04;98648.59;;;26.89;35.96
66762;BME280;53672;48.176;16.338;2023-07-29T17:11:04;98634.06;;;26.68;33.44
66762;BME280;53672;48.176;16.338;2023-07-29T17:16:06;98641.69;;;26.68;34.28
66762;BME280;53672;48.176;16.338;2023-07-29T17:21:07;98650.41;;;26.53;34.89
66762;BME280;53672;48.176;16.338;2023-07-29T17:26:07;98658.59;;;26.36;35.76
66762;BME280;53672;48.176;16.338;2023-07-29T17:31:09;98675.09;;;26.10;36.93
66762;BME280;53672;48.176;16.338;2023-07-29T17:36:10;98660.72;;;26.11;36.63
66762;BME280;53672;48.176;16.338;2023-07-29T17:41:10;98664.66;;;25.97;37.19
66762;BME280;53672;48.176;16.338;2023-07-29T17:46:12;98670.16;;;25.88;37.50
66762;BME280;53672;48.176;16.338;2023-07-29T17:51:13;98662.06;;;25.82;37.31
66762;BME280;53672;48.176;16.338;2023-07-29T17:56:13;98663.06;;;25.72;37.16
66762;BME280;53672;48.176;16.338;2023-07-29T18:01:15;98665.25;;;25.56;37.37
66762;BME280;53672;48.176;16.338;2023-07-29T18:06:16;98682.56;;;25.45;36.57
66762;BME280;53672;48.176;16.338;2023-07-29T18:11:17;98666.53;;;25.45;36.00
66762;BME280;53672;48.176;16.338;2023-07-29T18:16:19;98672.56;;;25.57;35.18
66762;BME280;53672;48.176;16.338;2023-07-29T18:21:19;98677.41;;;25.33;36.13
66762;BME280;53672;48.176;16.338;2023-07-29T18:26:20;98682.19;;;25.09;36.47
66762;BME280;53672;48.176;16.338;2023-07-29T18:31:21;98692.13;;;25.02;36.88
66762;BME280;53672;48.176;16.338;2023-07-29T18:36:22;98681.13;;;24.81;36.91
66762;BME280;53672;48.176;16.338;2023-07-29T18:41:23;98696.44;;;24.70;37.68
66762;BME280;53672;48.176;16.338;2023-07-29T18:46:24;98703.81;;;24.61;38.00
66762;BME280;53672;48.176;16.338;2023-07-29T18:51:25;98713.50;;;24.50;38.50
66762;BME280;53672;48.176;16.338;2023-07-29T18:56:26;98723.13;;;24.39;39.33
66762;BME280;53672;48.176;16.338;2023-07-29T19:01:31;98726.31;;;24.28;39.88
66762;BME280;53672;48.176;16.338;2023-07-29T19:06:32;98727.81;;;24.15;40.96
66762;BME280;53672;48.176;16.338;2023-07-29T19:11:33;98730.41;;;24.06;40.42
66762;BME280;53672;48.176;16.338;2023-07-29T19:16:35;98732.41;;;24.01;40.98
66762;BME280;53672;48.176;16.338;2023-07-29T19:21:36;98733.81;;;23.98;41.23
66762;BME280;53672;48.176;16.338;2023-07-29T19:26:37;98734.75;;;23.89;42.58
66762;BME280;53672;48.176;16.338;2023-07-29T19:31:39;98740.13;;;23.80;42.15
66762;BME280;53672;48.176;16.338;2023-07-29T19:36:40;98746.66;;;23.66;42.62
66762;BME280;53672;48.176;16.338;2023-07-29T19:41:41;98734.66;;;23.55;43.31
66762;BME280;53672;48.176;16.338;2023-07-29T19:46:43;98734.41;;;23.51;43.31
66762;BME280;53672;48.176;16.338;2023-07-29T19:51:44;98731.31;;;23.48;44.47
66762;BME280;53672;48.176;16.338;2023-07-29T19:56:45;98743.69;;;23.42;45.21
66762;BME280;53672;48.176;16.338;2023-07-29T20:01:48;98745.41;;;23.38;45.08
66762;BME280;53672;48.176;16.338;2023-07-29T20:06:49;98744.31;;;23.34;45.46
66762;BME280;53672;48.176;16.338;2023-07-29T20:11:50;98742.31;;;23.34;45.06
66762;BME280;53672;48.176;16.338;2023-07-29T20:16:51;98725.28;;;23.31;45.68
66762;BME280;53672;48.176;16.338;2023-07-29T20:21:52;98729.47;;;23.28;45.75
66762;BME280;53672;48.176;16.338;2023-07-29T20:26:53;98734.53;;;23.31;45.30
66762;BME280;53672;48.176;16.338;2023-07-29T20:31:55;98735.66;;;23.25;45.76
66762;BME280;53672;48.176;16.338;2023-07-29T20:36:56;98734.84;;;23.25;45.30
66762;BME280;53672;48.176;16.338;2023-07-29T20:41:56;98738.19;;;23.27;45.23
66762;BME280;53672;48.176;16.338;2023-07-29T20:46:59;98738.19;;;23.27;45.55
66762;BME280;53672;48.176;16.338;2023-07-29T20:52:00;98736.19;;;23.32;45.68
66762;BME280;53672;48.176;16.338;2023-07-29T20:57:01;98740.13;;;23.31;45.30
66762;BME280;53672;48.176;16.338;2023-07-29T21:02:04;98758.88;;;23.31;45.66
66762;BME280;53672;48.176;16.338;2023-07-29T21:07:04;98761.38;;;23.32;45.54
66762;BME280;53672;48.176;16.338;2023-07-29T21:12:05;98760.28;;;23.28;45.73
66762;BME280;53672;48.176;16.338;2023-07-29T21:17:07;98763.94;;;23.29;46.16
66762;BME280;53672;48.176;16.338;2023-07-29T21:22:08;98772.59;;;23.27;46.38
66762;BME280;53672;48.176;16.338;2023-07-29T21:27:08;98781.53;;;23.34;46.74
66762;BME280;53672;48.176;16.338;2023-07-29T21:32:10;98791.94;;;23.34;46.55
66762;BME280;53672;48.176;16.338;2023-07-29T21:37:11;98793.91;;;23.33;46.65
66762;BME280;53672;48.176;16.338;2023-07-29T21:42:11;98797.53;;;23.34;46.41
66762;BME280;53672;48.176;16.338;2023-07-29T21:47:13;98795.03;;;23.27;46.91
66762;BME280;53672;48.176;16.338;2023-07-29T21:52:13;98795.31;;;23.21;47.35
66762;BME280;53672;48.176;16.338;2023-07-29T21:57:14;98806.53;;;23.16;47.14
66762;BME280;53672;48.176;16.338;2023-07-29T22:02:16;98818.34;;;23.13;47.23
66762;BME280;53672;48.176;16.338;2023-07-29T22:07:16;98817.50;;;23.12;47.47
66762;BME280;53672;48.176;16.338;2023-07-29T22:12:17;98826.72;;;23.13;47.27
66762;BME280;53672;48.176;16.338;2023-07-29T22:17:19;98828.69;;;23.12;47.34
66762;BME280;53672;48.176;16.338;2023-07-29T22:22:19;98837.09;;;23.07;47.94
66762;BME280;53672;48.176;16.338;2023-07-29T22:27:20;98834.84;;;23.04;48.00
66762;BME280;53672;48.176;16.338;2023-07-29T22:32:21;98833.16;;;23.03;47.82
66762;BME280;53672;48.176;16.338;2023-07-29T22:37:22;98841.56;;;22.93;48.94
66762;BME280;53672;48.176;16.338;2023-07-29T22:42:22;98854.16;;;22.96;48.93
66762;BME280;53672;48.176;16.338;2023-07-29T22:47:24;98845.75;;;22.96;49.04
66762;BME280;53672;48.176;16.338;2023-07-29T22:52:25;98852.22;;;22.91;49.13
66762;BME280;53672;48.176;16.338;2023-07-29T22:57:25;98853.34;;;22.90;49.42
66762;BME280;53672;48.176;16.338;2023-07-29T23:02:27;98851.66;;;22.84;49.35
66762;BME280;53672;48.176;16.338;2023-07-29T23:07:27;98850.56;;;22.85;49.74
66762;BME280;53672;48.176;16.338;2023-07-29T23:12:28;98848.84;;;22.89;49.30
66762;BME280;53672;48.176;16.338;2023-07-29T23:17:30;98843.81;;;22.86;49.72
66762;BME280;53672;48.176;16.338;2023-07-29T23:22:30;98845.50;;;22.87;49.88
66762;BME280;53672;48.176;16.338;2023-07-29T23:27:31;98844.09;;;22.74;50.21
66762;BME280;53672;48.176;16.338;2023-07-29T23:32:32;98847.75;;;22.80;49.71
66762;BME280;53672;48.176;16.338;2023-07-29T23:37:33;98842.16;;;22.85;49.80
66762;BME280;53672;48.176;16.338;2023-07-29T23:42:33;98848.59;;;22.85;49.80
66762;BME280;53672;48.176;16.338;2023-07-29T23:47:35;98847.19;;;22.88;50.04
66762;BME280;53672;48.176;16.338;2023-07-29T23:52:36;98847.75;;;22.85;50.51
66762;BME280;53672;48.176;16.338;2023-07-29T23:57:36;98833.75;;;22.75;50.89
